This is the latest recevied weather packets stored in our database for station/object YT1XN-8. If no packets are shown the sender has not sent any weather packets the latest 10 day(s).
| Time | Temp. | Humidity | Pressure | Rain* | Wind** | Luminosity | Snow |
|---|---|---|---|---|---|---|---|
| 1777731044 | 20.56° C | 47% | 1021.5 hPa | 0 mm | - | - | - |
| 1777730982 | 20.56° C | 46% | 1021.5 hPa | 0 mm | - | - | - |
| 1777730444 | 20.56° C | 49% | 1021.5 hPa | 0 mm | - | - | - |
| 1777730323 | 20° C | 48% | 1021.6 hPa | 0 mm | - | - | - |
| 1777729845 | 20° C | 50% | 1021.7 hPa | 0 mm | - | - | - |
| 1777729662 | 20° C | 49% | 1021.6 hPa | 0 mm | - | - | - |
| 1777729244 | 19.44° C | 47% | 1021.9 hPa | 0 mm | - | - | - |
| 1777729002 | 18.89° C | 52% | 1022 hPa | 0 mm | - | - | - |
| 1777728644 | 18.89° C | 50% | 1022 hPa | 0 mm | - | - | - |
| 1777728343 | 18.89° C | 49% | 1022 hPa | 0 mm | - | - | - |
| 1777728045 | 18.89° C | 50% | 1022.1 hPa | 0 mm | - | - | - |
| 1777727683 | 19.44° C | 48% | 1022.1 hPa | 0 mm | - | - | - |
| 1777727444 | 19.44° C | 46% | 1022.1 hPa | 0 mm | - | - | - |
| 1777727022 | 18.89° C | 48% | 1022.3 hPa | 0 mm | - | - | - |
| 1777726844 | 18.89° C | 51% | 1022.3 hPa | 0 mm | - | - | - |
| 1777726362 | 18.89° C | 49% | 1022.5 hPa | 0 mm | - | - | - |
| 1777726243 | 18.89° C | 49% | 1022.5 hPa | 0 mm | - | - | - |
| 1777725702 | 20° C | 45% | 1022.5 hPa | 0 mm | - | - | - |
| 1777725643 | 20° C | 45% | 1022.6 hPa | 0 mm | - | - | - |
| 1777725042 | 20° C | 48% | 1022.6 hPa | 0 mm | - | - | - |
| 1777724446 | 18.89° C | 50% | 1022.7 hPa | 0 mm | - | - | - |
| 1777724382 | 18.89° C | 49% | 1022.7 hPa | 0 mm | - | - | - |
| 1777723843 | 19.44° C | 47% | 1022.7 hPa | 0 mm | - | - | - |
| 1777723722 | 19.44° C | 49% | 1022.8 hPa | 0 mm | - | - | - |
| 1777723243 | 19.44° C | 48% | 1022.8 hPa | 0 mm | - | - | - |
* Rain latest hour (hover to see other rain measurements)
** Current wind speed in m/s (hover to see current wind gust speed)